Time;durP1;ratioP1;P1;durP2;ratioP2;P2;SDS_P1;SDS_P2;PMS_P1;PMS_P2;Temp;Humidity;BMP_temperature;BMP_pressure;BME280_temperature;BME280_humidity;BME280_pressure;Samples;Min_cycle;Max_cycle;Signal;HPM_P1;HPM_P2
2023/07/29 00:01:49;;;;;;;13.45;12.50;;;22.20;99.90;;;;;;4882924;29;20036;-90
2023/07/29 00:04:16;;;;;;;14.02;12.90;;;22.20;99.90;;;;;;4901234;29;20095;-90
2023/07/29 00:06:42;;;;;;;13.75;12.50;;;22.10;99.90;;;;;;4897198;29;20035;-91
2023/07/29 00:09:09;;;;;;;13.63;12.50;;;22.10;99.90;;;;;;4901192;29;20051;-90
2023/07/29 00:11:35;;;;;;;13.93;12.68;;;22.10;99.90;;;;;;4889671;29;20036;-93
2023/07/29 00:14:02;;;;;;;14.20;12.80;;;22.00;99.90;;;;;;4898126;29;20025;-89
2023/07/29 00:16:28;;;;;;;13.93;12.77;;;22.00;99.90;;;;;;4881967;29;20052;-93
2023/07/29 00:18:55;;;;;;;12.70;11.93;;;22.00;99.90;;;;;;4897988;29;20035;-90
2023/07/29 00:21:22;;;;;;;13.50;12.40;;;21.90;99.90;;;;;;4885085;29;20032;-90
2023/07/29 00:23:48;;;;;;;13.05;12.15;;;21.90;99.90;;;;;;4883068;29;20020;-92
2023/07/29 00:26:35;;;;;;;13.90;11.75;;;21.90;99.90;;;;;;4882399;29;20064;-92
2023/07/29 00:29:02;;;;;;;12.00;11.30;;;22.00;99.90;;;;;;4897653;29;20033;-92
2023/07/29 00:31:28;;;;;;;12.20;10.82;;;22.00;99.90;;;;;;4902534;29;20020;-91
2023/07/29 00:33:55;;;;;;;12.50;11.40;;;22.00;99.90;;;;;;4900970;29;20084;-90
2023/07/29 00:36:21;;;;;;;12.98;11.73;;;22.00;99.90;;;;;;4881525;29;20127;-92
2023/07/29 00:38:48;;;;;;;12.45;11.50;;;21.90;99.90;;;;;;4866262;29;20044;-91
2023/07/29 00:41:16;;;;;;;12.60;11.60;;;21.90;99.90;;;;;;4865459;29;20159;-92
2023/07/29 00:43:42;;;;;;;11.75;11.05;;;21.90;99.90;;;;;;4859878;29;20033;-91
2023/07/29 00:46:09;;;;;;;11.90;11.00;;;22.00;99.90;;;;;;4852914;29;20072;-90
2023/07/29 00:48:36;;;;;;;12.93;11.77;;;21.90;99.90;;;;;;4847275;29;20045;-93
2023/07/29 00:51:03;;;;;;;12.40;11.52;;;21.90;99.90;;;;;;4847269;29;20060;-90
2023/07/29 00:53:29;;;;;;;12.45;11.45;;;21.90;99.90;;;;;;4862586;29;20060;-89
2023/07/29 00:55:56;;;;;;;13.10;12.00;;;21.90;99.90;;;;;;4847132;29;20104;-89
2023/07/29 00:58:25;;;;;;;12.65;11.65;;;21.90;99.90;;;;;;4870420;29;20052;-89
2023/07/29 01:00:53;;;;;;;12.80;11.73;;;21.80;99.90;;;;;;4847009;29;20037;-90
2023/07/29 01:03:21;;;;;;;12.80;11.50;;;21.70;99.90;;;;;;4864755;29;20048;-89
2023/07/29 01:06:13;;;;;;;13.18;12.18;;;21.70;99.90;;;;;;4865735;29;20536;-90
2023/07/29 01:09:05;;;;;;;12.30;11.40;;;21.60;99.90;;;;;;4900535;29;20256;-88
2023/07/29 01:11:39;;;;;;;13.00;11.73;;;21.60;99.90;;;;;;4896191;29;20040;-88
2023/07/29 01:14:28;;;;;;;11.93;11.00;;;21.60;99.90;;;;;;4886747;29;20037;-89
2023/07/29 01:17:00;;;;;;;12.50;11.48;;;21.50;99.90;;;;;;4876711;29;20072;-88
2023/07/29 01:19:59;;;;;;;12.00;11.15;;;21.50;99.90;;;;;;4863302;29;20045;-89
2023/07/29 01:22:30;;;;;;;11.95;11.00;;;21.50;99.90;;;;;;4863192;29;20552;-90
2023/07/29 01:24:59;;;;;;;12.75;11.65;;;21.50;99.90;;;;;;4892856;29;20092;-90
2023/07/29 01:27:26;;;;;;;12.20;11.23;;;21.40;99.90;;;;;;4881853;29;20039;-88
2023/07/29 01:29:54;;;;;;;11.88;10.98;;;21.50;99.90;;;;;;4885258;29;20063;-90
2023/07/29 01:32:33;;;;;;;12.02;10.90;;;21.50;99.90;;;;;;4885513;29;20032;-91
2023/07/29 01:35:30;;;;;;;12.63;11.73;;;21.40;99.90;;;;;;4885118;29;20033;-89
2023/07/29 01:38:31;;;;;;;11.50;10.68;;;21.40;99.90;;;;;;4884920;29;20490;-89
2023/07/29 01:41:01;;;;;;;12.57;11.48;;;21.40;99.90;;;;;;4881928;29;20066;-88
2023/07/29 01:43:32;;;;;;;11.60;10.70;;;21.40;99.90;;;;;;4881816;29;20041;-89
2023/07/29 01:45:58;;;;;;;12.50;11.40;;;21.50;99.90;;;;;;4897479;29;20029;-90
2023/07/29 01:48:27;;;;;;;11.57;10.77;;;21.40;99.90;;;;;;4903143;29;20115;-89
2023/07/29 01:50:54;;;;;;;11.82;10.93;;;21.40;99.90;;;;;;4889879;29;20029;-89
2023/07/29 01:53:20;;;;;;;11.65;10.75;;;21.40;99.90;;;;;;4900741;29;20064;-90
2023/07/29 01:55:47;;;;;;;11.75;10.93;;;21.40;99.90;;;;;;4903459;29;20040;-89
2023/07/29 01:58:14;;;;;;;11.43;10.63;;;21.30;99.90;;;;;;4919071;29;20115;-89
2023/07/29 02:00:46;;;;;;;11.32;10.48;;;21.30;99.90;;;;;;4904204;29;20047;-90
2023/07/29 02:03:12;;;;;;;11.45;10.55;;;21.20;99.90;;;;;;4886303;29;20036;-90
2023/07/29 02:05:40;;;;;;;11.60;10.48;;;21.20;99.90;;;;;;4899904;29;20036;-89
2023/07/29 02:08:06;;;;;;;11.18;10.07;;;21.30;99.90;;;;;;4884520;29;20124;-89
2023/07/29 02:10:33;;;;;;;11.70;10.52;;;21.30;99.90;;;;;;4900012;29;20486;-89
2023/07/29 02:12:59;;;;;;;10.48;9.85;;;21.30;99.90;;;;;;4900029;29;20060;-89
2023/07/29 02:15:26;;;;;;;11.18;10.27;;;21.30;99.90;;;;;;4899948;29;20505;-90
2023/07/29 02:17:52;;;;;;;11.55;10.65;;;21.30;99.90;;;;;;4913989;29;20042;-90
2023/07/29 02:20:19;;;;;;;11.00;10.10;;;21.30;99.90;;;;;;4903080;29;20111;-89
2023/07/29 02:22:47;;;;;;;10.60;9.90;;;21.30;99.90;;;;;;4902879;29;20095;-90
2023/07/29 02:25:14;;;;;;;10.77;9.98;;;21.20;99.90;;;;;;4918655;29;20123;-90
2023/07/29 02:27:40;;;;;;;10.77;10.07;;;21.10;99.90;;;;;;4918608;29;20084;-89
2023/07/29 02:30:09;;;;;;;10.90;10.10;;;21.10;99.90;;;;;;4902898;29;20397;-89
2023/07/29 02:32:36;;;;;;;11.10;10.18;;;21.00;99.90;;;;;;4902643;29;20064;-91
2023/07/29 02:35:04;;;;;;;11.25;10.40;;;21.00;99.90;;;;;;4902729;29;20044;-91
2023/07/29 02:37:31;;;;;;;11.07;10.07;;;21.00;99.90;;;;;;4902817;29;20028;-90
2023/07/29 02:39:58;;;;;;;11.18;10.02;;;20.90;99.90;;;;;;4889832;29;20044;-89
2023/07/29 02:42:24;;;;;;;12.93;10.02;;;20.90;99.90;;;;;;4899557;29;20025;-88
2023/07/29 02:44:51;;;;;;;11.50;10.50;;;20.90;99.90;;;;;;4899425;29;20025;-90
2023/07/29 02:47:17;;;;;;;11.20;10.00;;;20.90;99.90;;;;;;4899116;29;20043;-90
2023/07/29 02:49:47;;;;;;;11.07;10.20;;;20.90;99.90;;;;;;4899332;29;20458;-89
2023/07/29 02:52:14;;;;;;;11.75;10.55;;;20.90;99.90;;;;;;4899208;29;20055;-89
2023/07/29 02:54:40;;;;;;;11.00;9.90;;;20.90;99.90;;;;;;4898953;29;20056;-90
2023/07/29 02:57:07;;;;;;;11.50;10.50;;;21.00;99.90;;;;;;4905077;29;20051;-89
2023/07/29 02:59:33;;;;;;;11.40;10.40;;;21.00;99.90;;;;;;4899379;29;20025;-90
2023/07/29 03:01:59;;;;;;;10.93;10.07;;;21.00;99.90;;;;;;4902226;29;20032;-90
2023/07/29 03:04:26;;;;;;;10.88;9.77;;;21.10;99.90;;;;;;4902108;29;20111;-89
2023/07/29 03:06:52;;;;;;;12.30;10.63;;;21.10;99.90;;;;;;4917468;29;20039;-88
2023/07/29 03:09:19;;;;;;;11.45;10.50;;;21.10;99.90;;;;;;4886653;29;20024;-89
2023/07/29 03:11:46;;;;;;;11.88;10.25;;;21.20;99.90;;;;;;4901952;29;20063;-88
2023/07/29 03:14:12;;;;;;;12.02;10.40;;;21.20;99.90;;;;;;4902299;29;20021;-91
2023/07/29 03:16:39;;;;;;;10.77;9.82;;;21.20;99.90;;;;;;4902117;29;20102;-90
2023/07/29 03:19:06;;;;;;;11.23;10.32;;;21.20;99.90;;;;;;4917719;29;20545;-91
2023/07/29 03:21:32;;;;;;;11.48;10.55;;;21.10;99.90;;;;;;4902524;29;20042;-89
2023/07/29 03:24:00;;;;;;;11.55;10.43;;;21.10;99.90;;;;;;4898515;29;20055;-91
2023/07/29 03:26:27;;;;;;;12.07;10.90;;;21.10;99.90;;;;;;4895497;29;20088;-89
2023/07/29 03:28:53;;;;;;;11.60;10.48;;;21.00;99.90;;;;;;4881272;29;20083;-89
2023/07/29 03:31:20;;;;;;;11.95;10.95;;;20.90;99.90;;;;;;4898042;29;20035;-89
2023/07/29 03:33:47;;;;;;;11.40;10.35;;;20.90;99.90;;;;;;4897956;29;20040;-90
2023/07/29 03:36:15;;;;;;;11.18;10.27;;;20.80;99.90;;;;;;4897714;29;20116;-90
2023/07/29 03:38:42;;;;;;;11.20;10.07;;;20.70;99.90;;;;;;4897867;29;20052;-89
2023/07/29 03:41:09;;;;;;;11.70;10.57;;;20.60;99.90;;;;;;4897797;29;20052;-92
2023/07/29 03:43:36;;;;;;;10.40;9.40;;;20.50;99.90;;;;;;4897628;29;20079;-91
2023/07/29 03:46:03;;;;;;;10.63;9.55;;;20.50;99.90;;;;;;4881897;29;20029;-91
2023/07/29 03:48:31;;;;;;;10.02;9.10;;;20.40;99.90;;;;;;4895732;29;20028;-89
2023/07/29 03:50:57;;;;;;;9.23;8.52;;;20.40;99.90;;;;;;4878226;29;20631;-88
2023/07/29 03:53:25;;;;;;;12.20;8.98;;;20.50;99.90;;;;;;4862970;29;20105;-89
2023/07/29 03:55:55;;;;;;;10.25;9.18;;;20.50;99.90;;;;;;4880476;29;20131;-89
2023/07/29 03:58:22;;;;;;;10.00;9.10;;;20.70;99.90;;;;;;4898189;29;20076;-90
2023/07/29 04:00:48;;;;;;;10.65;8.60;;;20.80;99.90;;;;;;4898120;29;20084;-89
2023/07/29 04:03:15;;;;;;;10.10;9.20;;;20.80;99.90;;;;;;4898001;29;20137;-89
2023/07/29 04:05:42;;;;;;;10.05;8.95;;;20.90;99.90;;;;;;4898004;29;20028;-88
2023/07/29 04:08:09;;;;;;;10.55;9.52;;;20.90;99.90;;;;;;4899165;29;20024;-90
2023/07/29 04:10:37;;;;;;;10.63;9.60;;;21.00;99.90;;;;;;4917362;29;20463;-90
2023/07/29 04:13:04;;;;;;;11.43;9.65;;;21.10;99.90;;;;;;4901339;29;20032;-91
2023/07/29 04:15:31;;;;;;;10.70;9.82;;;21.20;99.90;;;;;;4897851;29;20036;-92
2023/07/29 04:17:57;;;;;;;13.40;9.68;;;21.20;99.90;;;;;;4906929;29;20083;-89
2023/07/29 04:20:24;;;;;;;16.40;10.20;;;21.30;99.90;;;;;;4916880;29;20501;-91
2023/07/29 04:22:50;;;;;;;11.60;10.45;;;21.40;99.90;;;;;;4894208;29;20041;-90
2023/07/29 04:25:17;;;;;;;14.65;10.73;;;21.50;99.90;;;;;;4907110;29;20036;-90
2023/07/29 04:27:43;;;;;;;12.93;10.88;;;21.60;99.90;;;;;;4900969;29;20037;-90
2023/07/29 04:30:13;;;;;;;12.50;11.20;;;21.60;99.90;;;;;;4901077;29;20080;-89
2023/07/29 04:32:42;;;;;;;11.35;10.55;;;21.70;99.90;;;;;;4890229;29;20055;-89
2023/07/29 04:35:09;;;;;;;17.63;11.65;;;21.80;99.90;;;;;;4912988;29;20044;-89
2023/07/29 04:37:37;;;;;;;12.00;11.00;;;21.90;99.90;;;;;;4888266;29;20033;-90
2023/07/29 04:40:03;;;;;;;11.77;10.88;;;22.00;99.90;;;;;;4897552;29;20059;-93
2023/07/29 04:42:33;;;;;;;12.98;11.70;;;22.10;99.90;;;;;;4903874;29;20065;-90
2023/07/29 04:44:59;;;;;;;12.52;11.43;;;22.30;99.90;;;;;;4899247;29;20032;-89
2023/07/29 04:47:26;;;;;;;12.18;11.18;;;22.50;99.90;;;;;;4897601;29;20040;-90
2023/07/29 04:49:52;;;;;;;12.35;11.18;;;22.80;99.90;;;;;;4904735;29;20050;-90
2023/07/29 04:52:19;;;;;;;13.48;12.25;;;23.10;99.90;;;;;;4900579;29;20032;-92
2023/07/29 04:54:46;;;;;;;15.27;13.80;;;23.90;99.90;;;;;;4894947;29;20104;-92
2023/07/29 04:57:12;;;;;;;17.02;15.50;;;24.70;99.90;;;;;;4916679;29;20040;-92
2023/07/29 04:59:39;;;;;;;15.80;14.60;;;25.70;99.90;;;;;;4897861;29;20123;-93
2023/07/29 05:02:05;;;;;;;16.40;15.20;;;26.50;99.90;;;;;;4916282;29;20124;-91
2023/07/29 05:04:32;;;;;;;15.70;14.52;;;27.30;99.90;;;;;;4904196;29;20438;-90
2023/07/29 05:06:58;;;;;;;17.95;16.60;;;28.40;99.90;;;;;;4904216;29;20036;-90
2023/07/29 05:09:25;;;;;;;19.08;17.77;;;29.80;99.90;;;;;;4904357;29;20034;-91
2023/07/29 07:32:55;;;;;;;21.95;20.35;;;35.10;99.90;;;;;;5009432;28;20432;-93
2023/07/29 07:35:22;;;;;;;24.08;22.10;;;34.70;99.90;;;;;;4991327;28;20035;-92
2023/07/29 07:37:48;;;;;;;23.80;22.40;;;34.80;99.90;;;;;;4984485;28;20109;-93
2023/07/29 07:40:15;;;;;;;24.80;22.98;;;35.00;99.90;;;;;;4994426;28;20161;-92
2023/07/29 07:42:41;;;;;;;25.85;24.05;;;35.20;99.90;;;;;;4977542;28;20063;-91
2023/07/29 07:45:08;;;;;;;25.10;23.05;;;35.70;99.90;;;;;;4956076;28;20030;-92
2023/07/29 07:47:34;;;;;;;25.02;23.30;;;35.10;99.90;;;;;;4955957;28;20031;-91
2023/07/29 07:50:01;;;;;;;25.85;24.15;;;34.90;99.90;;;;;;4956003;28;20031;-92
2023/07/29 07:52:46;;;;;;;25.75;24.15;;;35.10;99.90;;;;;;4957096;28;20043;-94
2023/07/29 07:55:17;;;;;;;24.90;23.33;;;35.70;99.90;;;;;;4987613;28;20027;-94
2023/07/29 07:57:44;;;;;;;26.17;24.38;;;35.50;99.90;;;;;;4957767;28;20054;-94
2023/07/29 08:00:15;;;;;;;26.15;23.95;;;35.50;99.90;;;;;;4968961;28;20027;-92
2023/07/29 08:02:44;;;;;;;24.98;23.48;;;35.80;99.90;;;;;;4964555;28;20138;-93
2023/07/29 08:05:10;;;;;;;26.70;24.35;;;35.70;99.90;;;;;;4987345;28;20030;-91
2023/07/29 08:07:36;;;;;;;25.20;23.60;;;36.10;99.90;;;;;;4955137;28;20031;-90
2023/07/29 08:10:03;;;;;;;25.13;23.58;;;36.40;99.90;;;;;;4955124;28;20158;-91
2023/07/29 08:12:29;;;;;;;25.65;23.85;;;37.00;99.90;;;;;;4954848;28;20492;-92
2023/07/29 08:14:56;;;;;;;26.58;24.35;;;37.00;99.90;;;;;;4971557;28;20027;-90
2023/07/29 08:17:22;;;;;;;26.08;24.27;;;37.10;99.90;;;;;;4987242;28;20027;-90
2023/07/29 08:19:49;;;;;;;25.48;23.92;;;37.30;99.90;;;;;;4987234;28;20097;-90
2023/07/29 08:22:16;;;;;;;24.98;23.48;;;36.40;99.90;;;;;;4987118;28;20051;-91
2023/07/29 08:24:44;;;;;;;26.23;24.38;;;36.30;99.90;;;;;;4987155;28;20058;-91
2023/07/29 08:27:10;;;;;;;26.17;24.40;;;35.80;99.90;;;;;;4954833;28;20031;-91
2023/07/29 08:29:37;;;;;;;26.25;24.38;;;35.80;99.90;;;;;;4967232;28;20038;-89
2023/07/29 08:32:04;;;;;;;26.63;24.67;;;35.30;99.90;;;;;;4999720;28;20055;-90
2023/07/29 08:34:30;;;;;;;25.33;23.67;;;34.80;99.90;;;;;;5006316;28;20393;-91
2023/07/29 08:36:57;;;;;;;26.13;24.33;;;34.70;99.90;;;;;;4974942;28;20038;-89
2023/07/29 08:39:24;;;;;;;25.65;23.85;;;35.10;99.90;;;;;;4976559;28;20023;-91
2023/07/29 08:42:00;;;;;;;26.20;24.38;;;35.70;99.90;;;;;;4990275;28;20062;-91
2023/07/29 08:44:35;;;;;;;26.02;24.17;;;36.10;99.90;;;;;;4992873;28;20031;-91
2023/07/29 08:47:01;;;;;;;26.25;24.30;;;36.40;99.90;;;;;;4993280;28;20054;-91
2023/07/29 08:49:30;;;;;;;25.50;23.88;;;36.50;99.90;;;;;;4993137;28;20023;-90
2023/07/29 08:51:58;;;;;;;25.73;24.02;;;36.10;99.90;;;;;;4993186;28;20093;-90
2023/07/29 08:54:25;;;;;;;25.55;23.95;;;35.90;99.90;;;;;;4995606;28;20038;-89
2023/07/29 08:56:52;;;;;;;26.00;24.15;;;36.30;99.90;;;;;;4969122;28;20404;-90
2023/07/29 08:59:20;;;;;;;25.85;24.15;;;35.60;99.90;;;;;;4960644;28;20022;-89
2023/07/29 09:01:50;;;;;;;25.33;23.88;;;36.20;99.90;;;;;;4993025;28;20035;-90
2023/07/29 09:04:17;;;;;;;25.45;24.05;;;36.20;99.90;;;;;;4992689;28;20079;-90
2023/07/29 09:06:46;;;;;;;25.25;23.83;;;36.00;99.90;;;;;;4992861;28;20034;-89
2023/07/29 09:09:13;;;;;;;26.90;24.85;;;36.00;99.90;;;;;;4960415;28;20031;-90
2023/07/29 09:11:39;;;;;;;25.85;24.17;;;36.60;99.90;;;;;;4960654;28;20062;-92
2023/07/29 09:14:06;;;;;;;25.55;24.00;;;37.30;99.90;;;;;;4960403;28;20058;-90
2023/07/29 09:16:34;;;;;;;26.35;24.45;;;37.10;99.90;;;;;;4975433;28;20027;-90
2023/07/29 09:19:03;;;;;;;26.15;24.45;;;36.90;99.90;;;;;;4966005;28;20027;-90
2023/07/29 09:21:31;;;;;;;25.88;24.27;;;36.30;99.90;;;;;;4992650;28;20050;-89
2023/07/29 09:24:07;;;;;;;26.55;24.60;;;35.20;99.90;;;;;;4992451;28;20054;-90
2023/07/29 09:26:34;;;;;;;25.88;24.10;;;34.60;99.90;;;;;;4992731;28;20031;-91
2023/07/29 09:29:01;;;;;;;26.08;24.45;;;34.40;99.90;;;;;;4992616;28;20031;-90
2023/07/29 09:31:29;;;;;;;25.55;24.05;;;34.30;99.90;;;;;;4959859;28;20405;-91
2023/07/29 09:34:00;;;;;;;25.48;23.90;;;34.40;99.90;;;;;;4975950;28;20033;-90
2023/07/29 09:36:30;;;;;;;25.70;24.08;;;35.00;99.90;;;;;;4960043;28;20030;-90
2023/07/29 09:38:58;;;;;;;25.80;24.20;;;35.20;99.90;;;;;;4991992;28;20034;-89
2023/07/29 09:41:30;;;;;;;25.50;23.90;;;34.80;99.90;;;;;;4992352;28;20023;-90
2023/07/29 09:44:01;;;;;;;25.95;24.20;;;33.70;99.90;;;;;;4992168;28;20034;-90
2023/07/29 09:46:34;;;;;;;25.73;24.05;;;34.00;99.90;;;;;;4976037;28;20037;-90
2023/07/29 09:49:06;;;;;;;25.70;24.20;;;34.80;99.90;;;;;;4959794;28;20563;-90
2023/07/29 09:51:39;;;;;;;25.52;23.88;;;35.20;99.90;;;;;;4991935;28;20062;-89
2023/07/29 09:54:06;;;;;;;24.73;23.23;;;34.50;99.90;;;;;;4968032;28;20076;-90
2023/07/29 09:56:32;;;;;;;25.65;24.15;;;34.40;99.90;;;;;;4975588;28;20027;-91
2023/07/29 09:58:59;;;;;;;25.73;23.88;;;34.60;99.90;;;;;;4991871;28;20388;-89
2023/07/29 10:01:26;;;;;;;25.25;23.52;;;34.50;99.90;;;;;;4991995;28;20033;-90
2023/07/29 10:03:56;;;;;;;26.27;24.10;;;34.40;99.90;;;;;;4991891;28;20061;-90
2023/07/29 10:06:23;;;;;;;25.63;23.65;;;34.30;99.90;;;;;;4991853;28;20492;-90
2023/07/29 10:08:51;;;;;;;25.77;24.13;;;33.80;99.90;;;;;;4991753;28;20114;-88
2023/07/29 10:11:21;;;;;;;25.67;24.17;;;33.60;99.90;;;;;;4991632;28;20031;-90
2023/07/29 10:13:49;;;;;;;26.02;24.52;;;33.70;99.90;;;;;;4991664;28;20423;-90
2023/07/29 10:16:16;;;;;;;25.58;23.63;;;33.80;99.90;;;;;;4991571;28;20027;-89
2023/07/29 10:18:43;;;;;;;25.67;23.85;;;34.20;99.90;;;;;;4991653;28;20034;-90
2023/07/29 10:21:11;;;;;;;25.35;23.70;;;34.30;99.90;;;;;;4991403;28;20035;-91
2023/07/29 10:23:43;;;;;;;24.70;23.40;;;34.30;99.90;;;;;;4991486;28;20030;-89
2023/07/29 10:26:11;;;;;;;25.02;23.30;;;34.40;99.90;;;;;;4974964;28;20488;-89
2023/07/29 10:28:41;;;;;;;25.20;23.80;;;34.60;99.90;;;;;;4958965;28;20503;-91
2023/07/29 10:31:08;;;;;;;25.15;23.75;;;35.00;99.90;;;;;;4990899;28;20050;-89
2023/07/29 10:33:35;;;;;;;25.17;23.58;;;34.70;99.90;;;;;;4991273;28;20033;-90
2023/07/29 10:36:04;;;;;;;25.25;23.75;;;35.00;99.90;;;;;;4991604;28;20038;-89
2023/07/29 10:38:31;;;;;;;25.75;23.95;;;34.50;99.90;;;;;;4991168;28;20023;-89
2023/07/29 10:41:00;;;;;;;25.45;23.85;;;34.20;99.90;;;;;;4991311;28;20392;-89
2023/07/29 10:43:43;;;;;;;25.52;24.02;;;33.80;99.90;;;;;;4992438;28;20113;-90
2023/07/29 10:46:21;;;;;;;25.30;23.77;;;33.80;99.90;;;;;;4958814;28;20035;-90
2023/07/29 10:48:51;;;;;;;25.65;23.90;;;34.10;99.90;;;;;;4958727;28;20424;-89
2023/07/29 10:51:37;;;;;;;25.80;24.30;;;34.40;99.90;;;;;;4990867;28;20034;-90
2023/07/29 10:54:14;;;;;;;26.17;24.67;;;34.00;99.90;;;;;;4974859;28;20516;-90
2023/07/29 10:56:43;;;;;;;25.90;24.50;;;33.80;99.90;;;;;;4974781;28;20082;-89
2023/07/29 10:59:12;;;;;;;25.38;23.98;;;33.80;99.90;;;;;;4974706;28;20023;-90
2023/07/29 11:01:58;;;;;;;24.92;23.52;;;33.80;99.90;;;;;;4990755;28;20026;-90
2023/07/29 11:04:27;;;;;;;25.77;24.13;;;34.10;99.90;;;;;;4974619;28;20117;-90
2023/07/29 11:07:11;;;;;;;24.80;23.33;;;34.10;99.90;;;;;;4974203;28;20374;-92
2023/07/29 11:09:41;;;;;;;25.70;23.70;;;33.60;99.90;;;;;;4990563;28;20041;-92
2023/07/29 11:12:36;;;;;;;25.08;23.48;;;33.60;99.90;;;;;;4990803;28;20042;-91
2023/07/29 11:15:13;;;;;;;24.65;23.17;;;33.80;99.90;;;;;;4990424;28;20031;-89
2023/07/29 11:17:42;;;;;;;25.05;23.52;;;33.80;99.90;;;;;;4958388;28;20522;-90
2023/07/29 11:20:09;;;;;;;24.50;22.98;;;33.90;99.90;;;;;;4958218;28;20085;-92
2023/07/29 11:22:36;;;;;;;25.60;23.90;;;33.90;99.90;;;;;;4958552;28;20417;-92
2023/07/29 11:25:05;;;;;;;26.38;24.13;;;34.10;99.90;;;;;;4958351;28;20033;-90
2023/07/29 11:27:32;;;;;;;25.20;23.50;;;34.20;99.90;;;;;;4958067;28;20045;-93
2023/07/29 11:30:11;;;;;;;24.40;23.08;;;34.60;99.80;;;;;;4990675;28;20026;-93
2023/07/29 11:32:39;;;;;;;25.60;23.80;;;34.50;99.70;;;;;;4990116;28;20061;-92
2023/07/29 11:35:13;;;;;;;25.05;23.63;;;34.50;99.40;;;;;;4990288;28;20035;-92
2023/07/29 11:37:40;;;;;;;25.02;23.50;;;34.20;99.50;;;;;;4987196;28;20035;-92
2023/07/29 11:40:10;;;;;;;25.67;24.10;;;34.10;99.60;;;;;;4939136;29;20050;-91
2023/07/29 11:42:38;;;;;;;25.30;23.70;;;33.60;99.50;;;;;;4952691;28;20118;-90
2023/07/29 11:45:09;;;;;;;25.50;23.92;;;33.60;99.80;;;;;;4974238;28;20022;-92
2023/07/29 11:47:37;;;;;;;25.20;23.60;;;33.70;99.90;;;;;;4974071;28;20034;-93
2023/07/29 11:50:13;;;;;;;25.30;23.77;;;33.80;99.50;;;;;;4990348;28;20026;-91
2023/07/29 11:52:45;;;;;;;25.35;23.75;;;34.10;99.20;;;;;;4989958;28;20042;-93
2023/07/29 11:55:13;;;;;;;25.42;23.80;;;34.00;99.00;;;;;;4990184;28;20027;-92
2023/07/29 11:57:42;;;;;;;25.27;23.67;;;34.10;99.10;;;;;;4990102;28;20027;-93
2023/07/29 12:00:11;;;;;;;25.70;24.10;;;34.40;99.40;;;;;;4990362;28;20031;-93
2023/07/29 12:02:49;;;;;;;26.27;24.77;;;34.10;99.00;;;;;;4991746;28;20034;-94
2023/07/29 12:05:16;;;;;;;26.02;24.50;;;34.10;99.20;;;;;;4990870;28;20027;-91
2023/07/29 12:07:44;;;;;;;25.92;24.08;;;34.30;99.40;;;;;;4990145;28;20031;-91
2023/07/29 12:10:11;;;;;;;25.90;24.20;;;34.40;99.90;;;;;;4957742;28;20407;-92
2023/07/29 12:12:51;;;;;;;25.75;24.10;;;34.40;99.80;;;;;;4963531;28;20633;-92
2023/07/29 12:15:29;;;;;;;26.17;24.35;;;34.40;99.30;;;;;;4990142;28;20043;-91
2023/07/29 12:17:56;;;;;;;25.35;23.75;;;34.40;99.70;;;;;;4991007;28;20035;-93
2023/07/29 12:20:29;;;;;;;25.85;23.80;;;34.50;99.40;;;;;;4993543;28;20027;-93
2023/07/29 12:22:58;;;;;;;25.80;24.20;;;34.10;98.90;;;;;;4993759;28;20467;-92
2023/07/29 12:25:26;;;;;;;25.77;23.95;;;34.10;99.30;;;;;;4995133;28;20066;-92
2023/07/29 12:27:52;;;;;;;25.85;24.15;;;34.10;99.10;;;;;;5006289;28;20109;-91
2023/07/29 12:30:25;;;;;;;24.63;23.13;;;34.10;99.40;;;;;;4972324;28;20081;-91
2023/07/29 12:32:52;;;;;;;24.67;23.35;;;34.20;99.40;;;;;;4993030;28;20097;-91
2023/07/29 12:35:18;;;;;;;25.55;23.95;;;34.20;99.30;;;;;;5010067;28;20514;-91
2023/07/29 12:37:45;;;;;;;25.33;23.90;;;33.90;99.80;;;;;;5009830;28;20058;-91
2023/07/29 12:40:22;;;;;;;25.15;23.67;;;33.60;99.90;;;;;;5009822;28;20536;-91
2023/07/29 12:42:51;;;;;;;25.73;23.90;;;33.20;99.90;;;;;;5009792;28;20034;-92
2023/07/29 12:45:18;;;;;;;25.52;23.80;;;33.40;99.90;;;;;;5009626;28;20031;-91
2023/07/29 12:47:45;;;;;;;25.67;24.05;;;33.80;99.90;;;;;;5009566;28;20400;-91
2023/07/29 12:50:11;;;;;;;25.90;24.20;;;34.40;99.40;;;;;;5009570;28;20062;-90
2023/07/29 12:52:38;;;;;;;25.05;23.45;;;34.30;99.10;;;;;;5003969;28;20035;-93
2023/07/29 12:55:08;;;;;;;24.63;23.27;;;33.40;99.90;;;;;;4973823;28;20027;-91
2023/07/29 12:57:43;;;;;;;26.50;24.42;;;33.40;99.90;;;;;;4973590;28;20031;-91
2023/07/29 13:00:11;;;;;;;24.48;23.08;;;33.50;99.90;;;;;;4957506;28;20063;-92
2023/07/29 13:02:37;;;;;;;25.10;23.70;;;33.50;99.90;;;;;;4962446;28;20130;-91
2023/07/29 13:05:04;;;;;;;24.85;23.38;;;33.10;99.90;;;;;;4992855;28;20038;-91
2023/07/29 13:07:31;;;;;;;24.35;22.92;;;32.70;99.90;;;;;;4992998;28;20030;-91
2023/07/29 13:09:57;;;;;;;25.35;23.35;;;32.40;99.90;;;;;;5009276;28;20031;-91
2023/07/29 13:12:23;;;;;;;24.90;23.40;;;32.70;99.90;;;;;;5009305;28;20038;-92
2023/07/29 13:14:50;;;;;;;24.88;23.40;;;32.90;99.90;;;;;;4976484;28;20023;-93
2023/07/29 13:17:16;;;;;;;25.77;23.80;;;33.10;99.90;;;;;;4992718;28;20042;-92
2023/07/29 13:19:43;;;;;;;24.85;23.35;;;33.20;99.90;;;;;;4992711;28;20027;-93
2023/07/29 13:22:09;;;;;;;25.05;23.50;;;33.30;99.90;;;;;;4992432;28;20027;-91
2023/07/29 13:24:35;;;;;;;24.45;22.88;;;33.30;99.90;;;;;;4992524;28;20033;-91
2023/07/29 13:27:02;;;;;;;25.48;23.75;;;33.40;99.90;;;;;;4992369;28;20034;-93
2023/07/29 13:29:28;;;;;;;25.77;24.08;;;33.50;99.90;;;;;;4992516;28;20510;-92
2023/07/29 13:31:54;;;;;;;25.30;23.63;;;33.80;99.90;;;;;;4991971;28;20390;-92
2023/07/29 13:34:21;;;;;;;24.75;23.42;;;34.20;99.90;;;;;;4992418;28;20027;-91
2023/07/29 13:36:48;;;;;;;25.20;23.80;;;34.30;99.90;;;;;;4992224;28;20507;-93
2023/07/29 13:39:14;;;;;;;27.55;25.67;;;34.40;99.90;;;;;;4992336;28;20049;-91
2023/07/29 13:41:40;;;;;;;25.25;23.77;;;34.70;99.90;;;;;;4992218;28;20122;-91
2023/07/29 13:44:06;;;;;;;25.55;24.05;;;34.50;99.90;;;;;;4971649;28;20023;-93
2023/07/29 13:46:33;;;;;;;25.77;24.17;;;34.30;99.90;;;;;;4992193;28;20031;-92
2023/07/29 13:48:59;;;;;;;25.65;24.20;;;33.70;99.90;;;;;;4972826;28;20027;-92
2023/07/29 13:51:25;;;;;;;25.70;24.10;;;33.30;99.90;;;;;;4988930;28;20447;-90
2023/07/29 13:53:52;;;;;;;25.27;23.77;;;33.20;99.90;;;;;;4988932;28;20035;-90
2023/07/29 13:56:18;;;;;;;24.75;23.25;;;33.10;99.90;;;;;;4988833;28;20027;-92
2023/07/29 13:58:44;;;;;;;26.58;24.88;;;33.30;99.90;;;;;;4988922;28;20099;-93
2023/07/29 14:01:11;;;;;;;24.75;23.35;;;33.10;99.90;;;;;;4991327;28;20126;-92
2023/07/29 14:03:37;;;;;;;25.13;23.73;;;32.90;99.90;;;;;;4966253;28;20030;-91
2023/07/29 14:06:04;;;;;;;25.83;24.10;;;32.80;99.90;;;;;;4991740;28;20026;-92
2023/07/29 14:08:30;;;;;;;25.83;24.20;;;32.70;99.90;;;;;;4992710;28;20085;-91
2023/07/29 14:10:56;;;;;;;25.17;23.67;;;32.80;99.90;;;;;;4976572;28;20037;-92
2023/07/29 14:13:22;;;;;;;25.17;23.67;;;32.90;99.90;;;;;;4959278;28;20022;-93
2023/07/29 14:15:49;;;;;;;24.90;23.50;;;33.10;99.90;;;;;;4975470;28;20118;-94
2023/07/29 14:18:15;;;;;;;24.70;23.40;;;32.70;99.90;;;;;;4975416;28;20023;-91
2023/07/29 14:20:42;;;;;;;24.90;23.50;;;32.50;99.90;;;;;;4975543;28;20544;-93
2023/07/29 14:23:08;;;;;;;25.77;23.90;;;32.50;99.90;;;;;;4975437;28;20102;-93
2023/07/29 14:25:35;;;;;;;24.80;23.42;;;32.30;99.90;;;;;;4975323;28;20029;-91
2023/07/29 14:28:01;;;;;;;25.00;23.60;;;32.10;99.90;;;;;;4958951;28;20496;-91
2023/07/29 14:30:28;;;;;;;25.23;23.63;;;32.20;99.90;;;;;;4969066;28;20034;-93
2023/07/29 14:32:55;;;;;;;24.83;23.42;;;32.30;99.90;;;;;;4991225;28;20047;-91
2023/07/29 14:35:22;;;;;;;25.05;23.55;;;32.20;99.90;;;;;;4991159;28;20065;-92
2023/07/29 14:37:51;;;;;;;25.00;23.60;;;32.30;99.90;;;;;;4991336;28;20041;-91
2023/07/29 14:40:17;;;;;;;24.95;23.45;;;32.50;99.90;;;;;;4990910;28;20507;-92
2023/07/29 14:42:44;;;;;;;25.02;23.33;;;32.70;99.90;;;;;;4991077;28;20035;-91
2023/07/29 14:45:10;;;;;;;24.58;23.15;;;32.30;99.90;;;;;;4991114;28;20026;-90
2023/07/29 14:47:39;;;;;;;24.25;22.95;;;32.50;99.90;;;;;;4991063;28;20042;-90
2023/07/29 14:50:06;;;;;;;24.85;23.35;;;32.60;99.90;;;;;;4990958;28;20027;-94
2023/07/29 14:52:32;;;;;;;24.05;22.75;;;32.20;99.90;;;;;;4990883;28;20039;-92
2023/07/29 14:54:59;;;;;;;24.73;23.33;;;32.30;99.90;;;;;;4990729;28;20106;-91
2023/07/29 14:57:25;;;;;;;25.30;23.80;;;32.20;99.90;;;;;;4990945;28;20034;-91